createdAt,value
2022-10-19T00:00:02.497Z,1024.42
2022-10-19T00:16:02.903Z,1024.35
2022-10-19T00:31:02.891Z,1024.35
2022-10-19T00:46:03.015Z,1024.35
2022-10-19T01:00:02.922Z,1024.25
2022-10-19T01:16:03.489Z,1024.22
2022-10-19T01:31:04.093Z,1024.12
2022-10-19T01:46:04.272Z,1024.01
2022-10-19T02:00:04.655Z,1024.12
2022-10-19T02:16:04.432Z,1024.15
2022-10-19T02:31:04.526Z,1024.15
2022-10-19T02:46:04.778Z,1024.12
2022-10-19T03:00:00.174Z,1023.98
2022-10-19T03:16:00.380Z,1023.88
2022-10-19T03:31:00.836Z,1023.91
2022-10-19T03:46:00.952Z,1023.91
2022-10-19T04:00:01.174Z,1023.88
2022-10-19T04:16:01.581Z,1023.91
2022-10-19T04:31:01.674Z,1023.81
2022-10-19T04:46:02.106Z,1023.81
2022-10-19T05:00:02.439Z,1023.81
2022-10-19T05:16:02.647Z,1023.78
2022-10-19T05:31:02.519Z,1023.81
2022-10-19T05:46:02.631Z,1023.84
2022-10-19T06:00:02.712Z,1023.88
2022-10-19T06:16:02.821Z,1023.95
2022-10-19T06:31:05.871Z,1024.05
2022-10-19T06:46:03.666Z,1024.22
2022-10-19T07:00:02.871Z,1024.28
2022-10-19T07:16:03.373Z,1024.18
2022-10-19T07:31:03.794Z,1024.18
2022-10-19T07:46:03.947Z,1024.08
2022-10-19T08:00:04.253Z,1024.12
2022-10-19T08:16:02.263Z,1024.01
2022-10-19T08:31:02.754Z,1023.88
2022-10-19T08:46:04.722Z,1023.71
2022-10-19T09:00:01.747Z,1023.37
2022-10-19T09:16:04.510Z,1023.37
2022-10-19T09:31:01.855Z,1023.23
2022-10-19T09:46:11.594Z,1023.17
2022-10-19T10:00:01.312Z,1023
2022-10-19T10:16:03.552Z,1022.83
2022-10-19T10:31:04.903Z,1022.56
2022-10-19T10:46:13.225Z,1022.39
2022-10-19T11:00:04.736Z,1022.29
2022-10-19T11:16:01.747Z,1021.98
2022-10-19T11:31:04.095Z,1021.64
2022-10-19T11:46:01.957Z,1021.37
2022-10-19T12:00:13.917Z,1021.2
2022-10-19T12:16:01.167Z,1020.86
2022-10-19T12:31:03.627Z,1020.56
2022-10-19T12:46:01.057Z,1020.39
2022-10-19T13:00:03.125Z,1020.36
2022-10-19T13:16:00.865Z,1020.25
2022-10-19T13:31:07.137Z,1020.19
2022-10-19T13:46:00.763Z,1020.05
2022-10-19T14:00:03.330Z,1020.02
2022-10-19T14:16:00.515Z,1019.95
2022-10-19T14:31:04.615Z,1019.88
2022-10-19T14:46:00.360Z,1019.78
2022-10-19T15:00:02.578Z,1019.85
2022-10-19T15:16:00.232Z,1019.81
2022-10-19T15:31:02.939Z,1019.81
2022-10-19T15:46:00.293Z,1019.85
2022-10-19T16:00:02.341Z,1019.95
2022-10-19T16:16:10.524Z,1020.15
2022-10-19T16:31:02.152Z,1020.29
2022-10-19T16:46:04.674Z,1020.49
2022-10-19T17:00:01.726Z,1020.63
2022-10-19T17:16:04.576Z,1020.9
2022-10-19T17:31:01.931Z,1021.07
2022-10-19T17:46:04.447Z,1021.17
2022-10-19T18:00:01.576Z,1021.37
2022-10-19T18:16:04.171Z,1021.54
2022-10-19T18:31:01.483Z,1021.64
2022-10-19T18:46:04.190Z,1021.81
2022-10-19T19:00:01.090Z,1021.95
2022-10-19T19:16:04.095Z,1022.02
2022-10-19T19:31:01.207Z,1022.08
2022-10-19T19:46:06.369Z,1022.29
2022-10-19T20:00:06.038Z,1022.42
2022-10-19T20:16:03.826Z,1022.46
2022-10-19T20:31:05.979Z,1022.56
2022-10-19T20:46:03.263Z,1022.69
2022-10-19T21:00:05.610Z,1022.73
2022-10-19T21:16:03.305Z,1022.76
2022-10-19T21:31:05.668Z,1022.86
2022-10-19T21:46:02.909Z,1023
2022-10-19T22:00:05.138Z,1023.03
2022-10-19T22:16:02.748Z,1023.07
2022-10-19T22:31:05.252Z,1023.07
2022-10-19T22:46:02.703Z,1023.07
2022-10-19T23:00:04.904Z,1023.07
2022-10-19T23:16:02.859Z,1023.2
2022-10-19T23:31:05.049Z,1023.3
2022-10-19T23:46:02.505Z,1023.3
